Time;durP1;ratioP1;P1;durP2;ratioP2;P2;SDS_P1;SDS_P2;PMS_P1;PMS_P2;Temp;Humidity;BMP_temperature;BMP_pressure;BME280_temperature;BME280_humidity;BME280_pressure;Samples;Min_cycle;Max_cycle;Signal;HPM_P1;HPM_P2
2022/08/04 00:00:27;;;;;;;5.33;4.17;;;21.10;99.90;;;;;;5029615;28;20441;-66
2022/08/04 00:03:10;;;;;;;5.57;4.20;;;21.10;99.90;;;;;;5029755;28;20451;-67
2022/08/04 00:05:49;;;;;;;4.43;4.03;;;21.10;99.90;;;;;;5029343;28;20906;-64
2022/08/04 00:08:25;;;;;;;5.40;3.23;;;21.10;99.90;;;;;;5029575;28;20464;-66
2022/08/04 00:10:55;;;;;;;4.40;4.00;;;21.00;99.90;;;;;;5029526;28;20938;-67
2022/08/04 00:13:24;;;;;;;4.47;4.07;;;20.90;99.90;;;;;;5029696;28;20464;-67
2022/08/04 00:15:53;;;;;;;4.03;3.60;;;20.90;99.90;;;;;;5029158;28;20461;-66
2022/08/04 00:18:26;;;;;;;4.27;3.87;;;20.80;99.90;;;;;;5029558;28;20453;-66
2022/08/04 00:20:58;;;;;;;5.27;3.73;;;20.80;99.90;;;;;;5029514;28;20448;-67
2022/08/04 00:23:27;;;;;;;4.43;3.97;;;20.80;99.90;;;;;;5029320;28;20455;-67
2022/08/04 00:25:54;;;;;;;4.50;3.60;;;20.80;99.90;;;;;;5028753;28;20464;-67
2022/08/04 00:28:21;;;;;;;4.80;3.60;;;20.80;99.90;;;;;;5030833;28;20448;-66
2022/08/04 00:30:49;;;;;;;5.00;3.80;;;20.70;99.90;;;;;;5033547;28;20448;-66
2022/08/04 00:33:19;;;;;;;4.87;3.80;;;20.70;99.90;;;;;;5033547;28;20447;-67
2022/08/04 00:35:48;;;;;;;4.47;3.50;;;20.70;99.90;;;;;;5032845;28;20499;-66
2022/08/04 00:38:16;;;;;;;4.07;3.40;;;20.60;99.90;;;;;;5033322;28;20479;-67
2022/08/04 00:40:50;;;;;;;5.40;3.60;;;20.50;99.90;;;;;;5033255;28;20673;-65
2022/08/04 00:43:24;;;;;;;4.20;3.80;;;20.60;99.90;;;;;;5033137;28;20460;-66
2022/08/04 00:46:17;;;;;;;4.03;3.63;;;20.50;99.90;;;;;;5032721;28;20464;-67
2022/08/04 00:49:02;;;;;;;4.07;3.40;;;20.50;99.90;;;;;;5033230;28;20459;-65
2022/08/04 00:51:41;;;;;;;3.77;3.27;;;20.40;99.90;;;;;;5033097;28;20780;-67
2022/08/04 00:54:16;;;;;;;4.00;3.50;;;20.30;99.90;;;;;;5032871;28;20453;-67
2022/08/04 00:57:12;;;;;;;4.50;3.60;;;20.20;99.90;;;;;;5032411;28;20490;-67
2022/08/04 01:00:04;;;;;;;3.80;3.40;;;20.30;99.90;;;;;;5032937;28;20452;-66
2022/08/04 01:02:36;;;;;;;3.30;3.00;;;20.20;99.90;;;;;;5032754;28;20539;-65
2022/08/04 01:05:06;;;;;;;4.20;3.80;;;20.20;99.90;;;;;;5032299;28;20822;-67
2022/08/04 01:08:17;;;;;;;3.90;3.40;;;20.20;99.90;;;;;;5032983;28;20801;-66
2022/08/04 01:10:58;;;;;;;5.03;3.87;;;20.30;99.90;;;;;;5023399;28;20453;-67
2022/08/04 01:13:48;;;;;;;3.77;3.13;;;20.20;99.90;;;;;;5032486;28;20440;-65
2022/08/04 01:16:18;;;;;;;5.30;3.20;;;20.10;99.90;;;;;;5032271;28;20951;-67
2022/08/04 01:18:55;;;;;;;3.87;3.43;;;20.10;99.90;;;;;;5032577;28;20449;-66
2022/08/04 01:21:39;;;;;;;5.63;3.73;;;20.10;99.90;;;;;;5032391;28;20448;-67
2022/08/04 01:24:26;;;;;;;4.50;3.87;;;20.00;99.90;;;;;;5032534;28;20429;-67
2022/08/04 01:27:01;;;;;;;5.60;4.20;;;20.10;99.90;;;;;;5032191;28;20899;-67
2022/08/04 01:29:33;;;;;;;3.77;3.10;;;20.00;99.90;;;;;;5032372;28;20444;-66
2022/08/04 01:32:03;;;;;;;3.87;3.27;;;19.90;99.90;;;;;;5032195;28;20449;-68
2022/08/04 01:34:34;;;;;;;4.10;3.53;;;19.90;99.90;;;;;;5032200;28;20448;-67
2022/08/04 01:37:08;;;;;;;4.70;3.83;;;19.90;99.90;;;;;;5032107;28;20866;-67
2022/08/04 01:39:41;;;;;;;3.53;3.10;;;19.90;99.90;;;;;;5031290;28;20457;-66
2022/08/04 01:42:09;;;;;;;4.13;3.47;;;19.80;99.90;;;;;;5032337;28;20445;-67
2022/08/04 01:44:40;;;;;;;5.27;4.00;;;19.80;99.90;;;;;;5031962;28;20449;-65
2022/08/04 01:47:09;;;;;;;3.77;3.10;;;19.80;99.90;;;;;;5032485;28;20534;-66
2022/08/04 01:49:38;;;;;;;4.80;3.43;;;19.80;99.90;;;;;;5032299;28;20445;-66
2022/08/04 01:52:09;;;;;;;3.80;3.40;;;19.80;99.90;;;;;;5031907;28;20479;-67
2022/08/04 01:54:40;;;;;;;4.67;4.17;;;19.70;99.90;;;;;;5031649;28;20449;-66
2022/08/04 01:57:09;;;;;;;4.00;3.60;;;19.70;99.90;;;;;;5031607;28;20488;-67
2022/08/04 01:59:38;;;;;;;3.37;3.07;;;19.70;99.90;;;;;;5031888;28;20462;-67
2022/08/04 02:02:05;;;;;;;3.93;3.10;;;19.70;99.90;;;;;;5031860;28;20445;-66
2022/08/04 02:04:33;;;;;;;4.70;4.30;;;19.80;99.90;;;;;;5031432;28;20507;-66
2022/08/04 02:07:14;;;;;;;5.50;3.37;;;19.80;99.90;;;;;;5031593;28;20460;-66
2022/08/04 02:09:52;;;;;;;4.60;3.30;;;19.90;99.90;;;;;;5031478;28;20456;-66
2022/08/04 02:12:25;;;;;;;7.03;3.73;;;19.90;99.90;;;;;;5031315;28;20801;-66
2022/08/04 02:15:02;;;;;;;3.87;3.40;;;19.80;99.90;;;;;;5030888;28;20457;-66
2022/08/04 02:17:32;;;;;;;3.10;2.80;;;19.70;99.90;;;;;;5031368;28;20492;-67
2022/08/04 02:20:08;;;;;;;3.70;3.07;;;19.60;99.90;;;;;;5031251;28;20539;-69
2022/08/04 02:22:42;;;;;;;4.37;3.17;;;19.60;99.90;;;;;;5031439;28;20444;-66
2022/08/04 02:25:11;;;;;;;3.77;3.37;;;19.60;99.90;;;;;;5031039;28;21046;-66
2022/08/04 02:28:11;;;;;;;5.00;3.83;;;19.50;99.90;;;;;;5031156;28;20456;-65
2022/08/04 02:30:45;;;;;;;3.83;3.43;;;19.50;99.90;;;;;;5031073;28;20832;-66
2022/08/04 02:33:16;;;;;;;3.97;3.53;;;19.50;99.90;;;;;;5031282;28;20445;-66
2022/08/04 02:35:49;;;;;;;4.60;3.33;;;19.50;99.90;;;;;;5030720;28;20495;-67
2022/08/04 02:38:23;;;;;;;4.17;3.33;;;19.60;99.90;;;;;;5030799;28;20495;-67
2022/08/04 02:40:53;;;;;;;3.77;3.03;;;19.60;99.90;;;;;;5030981;28;20440;-66
2022/08/04 02:43:21;;;;;;;5.33;3.43;;;19.70;99.90;;;;;;5031074;28;20801;-64
2022/08/04 02:45:55;;;;;;;4.63;3.50;;;19.70;99.90;;;;;;5030572;28;20468;-64
2022/08/04 02:48:24;;;;;;;4.10;3.27;;;19.70;99.90;;;;;;5030864;28;20444;-67
2022/08/04 02:50:54;;;;;;;3.90;2.73;;;19.70;99.90;;;;;;5030613;28;20449;-67
2022/08/04 02:53:22;;;;;;;3.27;2.97;;;19.70;99.90;;;;;;5029242;28;20452;-65
2022/08/04 02:55:51;;;;;;;3.60;3.30;;;19.70;99.90;;;;;;5029298;28;20464;-67
2022/08/04 02:58:20;;;;;;;4.10;3.33;;;19.70;99.90;;;;;;5030386;28;20492;-67
2022/08/04 03:00:51;;;;;;;3.70;3.40;;;19.70;99.90;;;;;;5029483;28;20448;-67
2022/08/04 03:03:30;;;;;;;3.43;3.03;;;19.60;99.90;;;;;;5030336;28;20441;-66
2022/08/04 03:06:38;;;;;;;5.50;3.37;;;19.50;99.90;;;;;;5029845;28;20563;-66
2022/08/04 03:09:30;;;;;;;4.37;3.30;;;19.40;99.90;;;;;;4996349;28;20456;-66
2022/08/04 03:12:35;;;;;;;4.60;3.47;;;19.40;99.90;;;;;;5030276;28;20967;-66
2022/08/04 03:15:47;;;;;;;4.60;3.30;;;19.30;99.90;;;;;;5030028;28;20873;-67
2022/08/04 03:18:44;;;;;;;5.50;3.97;;;19.20;99.90;;;;;;4993889;28;21068;-66
2022/08/04 03:21:39;;;;;;;4.53;3.63;;;19.20;99.90;;;;;;5030571;28;20441;-66
2022/08/04 03:24:30;;;;;;;3.50;3.10;;;19.20;99.90;;;;;;5029834;28;20926;-66
2022/08/04 03:27:42;;;;;;;4.10;3.53;;;19.10;99.90;;;;;;5029768;28;20552;-66
2022/08/04 03:30:13;;;;;;;3.90;3.30;;;19.10;99.90;;;;;;4982961;28;20531;-66
2022/08/04 03:33:14;;;;;;;5.67;3.63;;;19.10;99.90;;;;;;5029949;28;20478;-66
2022/08/04 03:36:08;;;;;;;5.50;4.13;;;19.10;99.90;;;;;;5029756;28;20522;-64
2022/08/04 03:38:58;;;;;;;4.63;3.70;;;19.00;99.90;;;;;;5029695;28;20480;-67
2022/08/04 03:41:46;;;;;;;4.47;3.63;;;19.00;99.90;;;;;;5029769;28;20453;-66
2022/08/04 03:44:46;;;;;;;7.43;3.67;;;19.00;99.90;;;;;;5030038;28;20453;-67
2022/08/04 03:47:55;;;;;;;4.30;3.30;;;19.00;99.90;;;;;;5030038;28;20892;-67
2022/08/04 03:54:09;;;;;;;4.07;3.67;;;19.00;99.90;;;;;;5006409;28;20483;-65
2022/08/04 03:56:58;;;;;;;4.90;4.00;;;18.90;99.90;;;;;;5029518;28;20464;-67
2022/08/04 03:59:46;;;;;;;4.60;3.50;;;18.90;99.90;;;;;;5029991;28;20453;-65
2022/08/04 04:02:56;;;;;;;4.50;3.90;;;18.80;99.90;;;;;;5029360;28;20453;-67
2022/08/04 04:06:00;;;;;;;5.43;4.17;;;18.70;99.90;;;;;;5029354;28;20475;-67
2022/08/04 04:08:42;;;;;;;5.30;4.20;;;18.80;99.90;;;;;;5016887;28;20452;-66
2022/08/04 04:11:38;;;;;;;10.10;4.17;;;18.80;99.90;;;;;;5029491;28;20939;-66
2022/08/04 04:14:18;;;;;;;4.67;3.93;;;18.70;99.90;;;;;;5029439;28;20453;-63
2022/08/04 04:17:17;;;;;;;4.73;3.80;;;18.60;99.90;;;;;;5029149;28;20468;-66
2022/08/04 04:19:59;;;;;;;4.47;3.73;;;18.70;99.90;;;;;;5023630;28;20453;-67
2022/08/04 04:22:44;;;;;;;4.90;4.40;;;18.70;99.90;;;;;;5029452;28;20453;-67
2022/08/04 04:25:25;;;;;;;5.97;4.00;;;18.70;99.90;;;;;;5028950;28;20810;-65
2022/08/04 04:28:15;;;;;;;5.30;3.83;;;18.80;99.90;;;;;;5029280;28;20449;-66
2022/08/04 04:30:51;;;;;;;4.50;4.10;;;18.80;99.90;;;;;;5029401;28;20456;-66
2022/08/04 04:33:37;;;;;;;5.67;4.47;;;18.80;99.90;;;;;;5028829;28;20440;-64
2022/08/04 04:36:13;;;;;;;5.17;3.67;;;18.90;99.90;;;;;;5029083;28;20850;-66
2022/08/04 04:38:57;;;;;;;6.90;4.10;;;18.90;99.90;;;;;;5029222;28;20509;-66
2022/08/04 04:41:41;;;;;;;5.30;4.80;;;18.90;99.90;;;;;;5029207;28;20445;-67
2022/08/04 04:44:44;;;;;;;5.40;3.40;;;18.90;99.90;;;;;;5029417;28;20448;-66
2022/08/04 04:47:18;;;;;;;4.37;3.97;;;19.00;99.90;;;;;;5028855;28;20468;-66
2022/08/04 04:49:51;;;;;;;4.03;3.47;;;19.00;99.90;;;;;;5029140;28;20448;-64
2022/08/04 04:52:28;;;;;;;4.13;3.63;;;19.00;99.90;;;;;;5029128;28;20445;-67
2022/08/04 04:55:02;;;;;;;5.00;4.27;;;19.10;99.90;;;;;;5028819;28;20440;-68
2022/08/04 04:57:35;;;;;;;7.30;4.00;;;19.10;99.90;;;;;;5029104;28;20480;-67
2022/08/04 05:00:07;;;;;;;5.27;3.90;;;19.20;99.90;;;;;;5029009;28;20855;-67
2022/08/04 05:03:02;;;;;;;4.17;3.43;;;19.40;99.90;;;;;;5029095;28;20451;-67
2022/08/04 05:05:40;;;;;;;4.43;3.43;;;19.40;99.90;;;;;;5028735;28;20475;-67
2022/08/04 05:08:27;;;;;;;5.90;4.23;;;19.40;99.90;;;;;;5028945;28;20449;-65
2022/08/04 05:11:12;;;;;;;6.73;4.70;;;19.50;99.90;;;;;;5029109;28;20502;-66
2022/08/04 05:13:44;;;;;;;4.97;4.27;;;19.60;99.90;;;;;;5029064;28;20452;-67
2022/08/04 05:16:19;;;;;;;4.30;3.90;;;19.70;99.90;;;;;;5031202;28;20460;-67
2022/08/04 05:18:57;;;;;;;6.10;4.43;;;19.80;99.90;;;;;;5032472;28;20933;-67
2022/08/04 05:21:37;;;;;;;5.20;4.60;;;19.80;99.90;;;;;;5032343;28;20464;-67
2022/08/04 05:24:09;;;;;;;6.87;4.43;;;19.90;99.90;;;;;;5032423;28;20451;-67
2022/08/04 05:26:43;;;;;;;5.20;4.70;;;19.90;99.90;;;;;;5031976;28;20475;-66
2022/08/04 05:29:13;;;;;;;4.83;3.77;;;20.00;99.90;;;;;;5032380;28;20444;-66
2022/08/04 05:31:49;;;;;;;4.90;3.70;;;20.10;99.90;;;;;;5032310;28;20463;-67
2022/08/04 05:34:20;;;;;;;8.40;4.77;;;20.20;99.90;;;;;;5032320;28;20444;-66
2022/08/04 05:36:51;;;;;;;6.50;4.90;;;20.30;99.90;;;;;;5031879;28;20465;-66
2022/08/04 05:39:21;;;;;;;5.33;4.17;;;20.40;99.90;;;;;;5031941;28;21021;-66
2022/08/04 05:41:49;;;;;;;5.90;4.47;;;20.50;99.90;;;;;;5032075;28;20455;-67
2022/08/04 05:44:18;;;;;;;4.63;3.57;;;20.50;99.90;;;;;;5032060;28;20441;-67
2022/08/04 05:46:49;;;;;;;4.40;3.50;;;20.50;99.90;;;;;;5031868;28;20469;-66
2022/08/04 05:49:17;;;;;;;5.87;4.40;;;20.70;99.90;;;;;;5032174;28;20444;-67
2022/08/04 05:51:46;;;;;;;4.57;4.10;;;20.70;99.90;;;;;;5032012;28;20440;-66
2022/08/04 05:54:14;;;;;;;6.80;4.67;;;20.80;99.90;;;;;;5031876;28;20969;-65
2022/08/04 05:56:42;;;;;;;7.07;3.70;;;21.00;99.90;;;;;;5031289;28;20473;-67
2022/08/04 05:59:11;;;;;;;5.57;4.37;;;21.10;99.90;;;;;;5031892;28;20485;-67
2022/08/04 06:01:38;;;;;;;4.10;3.57;;;21.20;99.90;;;;;;5031830;28;20449;-66
2022/08/04 06:04:08;;;;;;;5.20;4.20;;;21.30;99.90;;;;;;5031710;28;20451;-66
2022/08/04 06:06:37;;;;;;;5.57;4.43;;;21.40;99.90;;;;;;5031380;28;20646;-67
2022/08/04 06:09:04;;;;;;;4.13;3.73;;;21.40;99.90;;;;;;5031873;28;20477;-66
2022/08/04 06:11:32;;;;;;;7.30;4.10;;;21.50;99.90;;;;;;5031741;28;20452;-66
2022/08/04 06:14:03;;;;;;;7.20;4.37;;;21.60;99.90;;;;;;5032191;28;20459;-67
2022/08/04 06:16:36;;;;;;;4.60;3.67;;;21.70;99.90;;;;;;5031688;28;20468;-66
2022/08/04 06:19:08;;;;;;;6.60;4.73;;;21.90;99.90;;;;;;5031525;28;21020;-67
2022/08/04 06:21:37;;;;;;;5.03;4.23;;;22.10;99.90;;;;;;5031644;28;20526;-66
2022/08/04 06:24:09;;;;;;;4.60;4.10;;;22.20;99.90;;;;;;5031290;28;20449;-67
2022/08/04 06:26:37;;;;;;;5.93;4.03;;;22.30;99.90;;;;;;5030347;28;20477;-68
2022/08/04 06:29:09;;;;;;;4.20;3.27;;;22.40;99.90;;;;;;5031164;28;20965;-68
2022/08/04 06:31:56;;;;;;;6.80;3.80;;;22.60;99.90;;;;;;5031285;28;20524;-66
2022/08/04 06:34:25;;;;;;;4.87;3.23;;;22.70;99.90;;;;;;5031129;28;20445;-66
2022/08/04 06:36:53;;;;;;;4.57;4.17;;;22.90;99.90;;;;;;5030917;28;20469;-66
2022/08/04 06:39:22;;;;;;;7.50;4.40;;;23.00;99.90;;;;;;5031147;28;20919;-66
2022/08/04 06:41:50;;;;;;;4.20;3.43;;;23.10;99.90;;;;;;5031162;28;20499;-65
2022/08/04 06:44:18;;;;;;;6.43;3.67;;;23.30;99.90;;;;;;5030999;28;20455;-66
2022/08/04 06:46:45;;;;;;;4.37;3.40;;;23.40;99.90;;;;;;5030449;28;20479;-66
2022/08/04 06:49:13;;;;;;;7.27;3.77;;;23.50;99.90;;;;;;5030677;28;20437;-66
2022/08/04 06:51:42;;;;;;;4.40;3.70;;;23.70;99.90;;;;;;5030705;28;20843;-66
2022/08/04 06:54:09;;;;;;;3.67;3.00;;;23.80;99.90;;;;;;5030739;28;20531;-66
2022/08/04 06:56:39;;;;;;;7.30;3.87;;;24.00;99.90;;;;;;5030415;28;20473;-67
2022/08/04 06:59:07;;;;;;;4.50;3.30;;;24.10;99.90;;;;;;5030480;28;20488;-66
2022/08/04 07:01:36;;;;;;;4.30;2.80;;;24.20;99.90;;;;;;5030494;28;20951;-66
2022/08/04 07:04:04;;;;;;;4.33;3.37;;;24.40;99.90;;;;;;5030605;28;20447;-65
2022/08/04 07:06:31;;;;;;;4.77;2.80;;;24.60;99.90;;;;;;5030092;28;21005;-65
2022/08/04 07:08:59;;;;;;;4.30;2.90;;;24.80;99.90;;;;;;5030544;28;20556;-67
2022/08/04 07:11:28;;;;;;;4.60;2.43;;;24.90;99.90;;;;;;5030347;28;20971;-67
2022/08/04 07:13:55;;;;;;;4.67;3.43;;;25.10;99.90;;;;;;5030169;28;20828;-67
2022/08/04 07:16:23;;;;;;;3.20;2.90;;;25.20;99.90;;;;;;5030032;28;20469;-65
2022/08/04 07:18:50;;;;;;;3.63;2.70;;;25.30;99.90;;;;;;5030396;28;20867;-68
2022/08/04 07:21:22;;;;;;;3.27;2.40;;;25.50;99.90;;;;;;5030348;28;20449;-66
2022/08/04 07:23:49;;;;;;;3.87;3.17;;;25.60;99.90;;;;;;5030103;28;21070;-66
2022/08/04 07:26:18;;;;;;;4.93;2.70;;;25.80;99.90;;;;;;5029641;28;20472;-67
2022/08/04 07:28:46;;;;;;;4.07;2.57;;;26.00;99.90;;;;;;5030134;28;20544;-67
2022/08/04 07:31:16;;;;;;;2.90;2.43;;;26.10;99.90;;;;;;5030026;28;20488;-66
2022/08/04 07:33:43;;;;;;;3.20;2.80;;;26.20;99.90;;;;;;5030402;28;20512;-67
2022/08/04 07:36:10;;;;;;;3.57;2.33;;;26.30;99.90;;;;;;5029741;28;20477;-67
2022/08/04 07:38:38;;;;;;;4.30;2.70;;;26.50;99.90;;;;;;5029220;28;20492;-67
2022/08/04 07:41:06;;;;;;;4.87;2.33;;;26.70;99.80;;;;;;5029656;28;20453;-67
2022/08/04 07:43:37;;;;;;;5.23;3.10;;;26.80;99.30;;;;;;5030050;28;20479;-67
2022/08/04 07:46:04;;;;;;;4.37;3.10;;;27.00;99.00;;;;;;5029602;28;20469;-67
2022/08/04 07:48:31;;;;;;;3.50;2.60;;;27.10;98.00;;;;;;5030022;28;20441;-66
2022/08/04 07:50:59;;;;;;;6.03;2.73;;;27.20;97.80;;;;;;5029947;28;20441;-66
2022/08/04 07:53:27;;;;;;;4.90;2.50;;;27.30;97.50;;;;;;5029856;28;20507;-64
2022/08/04 07:55:54;;;;;;;4.83;2.40;;;27.40;96.30;;;;;;5029688;28;20846;-66
2022/08/04 07:58:21;;;;;;;3.27;2.30;;;27.60;96.60;;;;;;5029851;28;20487;-66
2022/08/04 08:00:49;;;;;;;3.80;2.40;;;27.80;94.50;;;;;;5029650;28;20452;-66
2022/08/04 08:03:16;;;;;;;3.10;2.17;;;28.00;95.00;;;;;;5029893;28;20452;-67
2022/08/04 08:05:43;;;;;;;4.57;2.53;;;28.20;93.00;;;;;;5029539;28;20515;-67
2022/08/04 08:08:10;;;;;;;3.10;2.17;;;28.30;92.40;;;;;;5029545;28;20452;-67
2022/08/04 08:10:39;;;;;;;3.27;2.33;;;28.30;92.80;;;;;;5029908;28;20448;-66
2022/08/04 08:13:08;;;;;;;4.43;2.10;;;28.30;91.20;;;;;;5029726;28;20453;-66
2022/08/04 08:15:35;;;;;;;3.27;1.90;;;28.40;90.80;;;;;;5029552;28;20476;-66
2022/08/04 08:18:04;;;;;;;3.73;2.10;;;28.50;90.60;;;;;;5029738;28;21183;-66
2022/08/04 08:20:32;;;;;;;2.73;2.20;;;28.50;90.10;;;;;;5029589;28;20481;-67
2022/08/04 08:22:59;;;;;;;3.27;2.10;;;28.60;90.40;;;;;;5029815;28;20527;-66
2022/08/04 08:25:26;;;;;;;3.30;1.80;;;28.80;90.00;;;;;;5029490;28;20552;-65
2022/08/04 08:27:53;;;;;;;2.80;2.00;;;28.90;88.50;;;;;;5029744;28;20456;-66
2022/08/04 08:30:20;;;;;;;3.03;2.23;;;29.30;87.90;;;;;;5029780;28;20562;-66
2022/08/04 08:32:47;;;;;;;2.80;2.10;;;29.50;86.90;;;;;;5029675;28;20437;-66
2022/08/04 08:35:15;;;;;;;4.77;2.40;;;29.70;85.80;;;;;;5029000;28;20448;-66
2022/08/04 08:37:49;;;;;;;3.23;2.13;;;29.80;84.80;;;;;;5029615;28;20467;-65
2022/08/04 08:40:29;;;;;;;3.43;2.03;;;29.90;86.50;;;;;;5029399;28;20583;-67
2022/08/04 08:43:31;;;;;;;3.93;2.13;;;30.10;83.10;;;;;;5030037;28;20452;-67
2022/08/04 08:46:18;;;;;;;2.93;2.47;;;30.30;84.00;;;;;;4986283;28;20474;-66
2022/08/04 08:49:01;;;;;;;3.70;1.90;;;30.40;84.10;;;;;;5026695;28;20455;-66
2022/08/04 08:51:51;;;;;;;3.10;2.47;;;30.60;83.20;;;;;;5032995;28;20437;-66
2022/08/04 08:54:56;;;;;;;3.70;2.10;;;30.80;82.60;;;;;;5033119;28;20441;-67
2022/08/04 08:57:42;;;;;;;3.50;2.20;;;31.00;81.40;;;;;;5032972;28;20440;-66
2022/08/04 09:00:16;;;;;;;3.60;2.30;;;31.30;81.60;;;;;;5032739;28;20480;-67
2022/08/04 09:03:05;;;;;;;4.23;2.30;;;31.40;83.20;;;;;;5033035;28;20448;-65
2022/08/04 09:05:48;;;;;;;4.10;2.43;;;31.50;79.80;;;;;;5032555;28;20483;-67
2022/08/04 09:08:28;;;;;;;2.87;2.40;;;31.70;79.00;;;;;;5032704;28;20452;-68
2022/08/04 09:11:05;;;;;;;2.90;2.30;;;31.80;80.00;;;;;;5032887;28;20467;-67
2022/08/04 09:13:40;;;;;;;5.37;2.10;;;31.90;79.30;;;;;;5032896;28;20447;-67
2022/08/04 09:16:15;;;;;;;3.40;2.23;;;31.90;79.00;;;;;;5032396;28;20468;-67
2022/08/04 09:18:46;;;;;;;2.47;1.77;;;32.00;76.60;;;;;;5032576;28;20806;-67
2022/08/04 09:21:23;;;;;;;3.03;1.87;;;32.20;78.70;;;;;;5032931;28;20431;-67
2022/08/04 09:23:59;;;;;;;4.97;3.73;;;32.40;77.10;;;;;;5032531;28;20452;-67
2022/08/04 09:26:32;;;;;;;4.17;2.23;;;32.60;74.90;;;;;;5032059;28;20480;-66
2022/08/04 09:29:08;;;;;;;4.83;2.83;;;32.60;74.90;;;;;;5032319;28;20448;-67
2022/08/04 09:31:45;;;;;;;6.23;2.40;;;32.70;74.70;;;;;;5032576;28;20456;-67
2022/08/04 09:34:20;;;;;;;3.20;2.50;;;32.80;75.20;;;;;;5032254;28;20510;-65
2022/08/04 09:36:53;;;;;;;4.00;2.43;;;32.80;75.30;;;;;;5032111;28;20471;-65
2022/08/04 09:39:26;;;;;;;3.30;2.60;;;33.00;72.80;;;;;;5032122;28;21061;-68
2022/08/04 09:42:04;;;;;;;4.33;2.50;;;33.20;74.90;;;;;;5032054;28;20809;-67
2022/08/04 09:44:38;;;;;;;3.30;2.50;;;33.40;74.80;;;;;;5032026;28;20445;-65
2022/08/04 09:47:13;;;;;;;3.23;2.27;;;33.50;71.40;;;;;;5032193;28;20468;-68
2022/08/04 09:49:47;;;;;;;4.50;2.50;;;33.70;70.60;;;;;;5032178;28;20449;-67
2022/08/04 09:52:26;;;;;;;3.27;2.80;;;33.90;70.10;;;;;;5031993;28;20824;-67
2022/08/04 09:55:04;;;;;;;5.70;3.50;;;34.30;66.60;;;;;;5031821;28;20835;-67
2022/08/04 09:57:43;;;;;;;4.10;2.60;;;34.80;66.80;;;;;;5031882;28;21152;-68
2022/08/04 10:00:15;;;;;;;3.17;2.77;;;35.60;65.00;;;;;;5031117;28;20477;-67
2022/08/04 10:02:46;;;;;;;3.77;2.23;;;36.50;61.80;;;;;;5031607;28;20457;-68
2022/08/04 10:05:19;;;;;;;3.47;2.33;;;37.30;62.80;;;;;;5031424;28;20453;-68
2022/08/04 10:08:02;;;;;;;2.80;2.33;;;38.10;56.90;;;;;;5031926;28;20821;-68
2022/08/04 10:10:36;;;;;;;3.53;2.30;;;38.90;57.10;;;;;;5031719;28;20451;-67
2022/08/04 10:13:17;;;;;;;3.87;2.50;;;39.30;57.10;;;;;;5031616;28;20448;-67
2022/08/04 10:15:51;;;;;;;3.97;2.40;;;38.70;54.40;;;;;;5031716;28;20468;-69
2022/08/04 10:18:39;;;;;;;3.60;2.10;;;38.60;53.50;;;;;;5031763;28;20448;-67
2022/08/04 10:21:11;;;;;;;2.50;1.90;;;38.80;54.20;;;;;;5031525;28;20485;-67
2022/08/04 10:23:53;;;;;;;2.60;2.10;;;39.20;52.10;;;;;;5031373;28;20445;-67
2022/08/04 10:26:34;;;;;;;2.57;1.87;;;39.20;51.60;;;;;;5031120;28;20492;-67
2022/08/04 10:29:05;;;;;;;2.20;1.90;;;39.50;49.70;;;;;;5031441;28;20445;-66
2022/08/04 10:31:35;;;;;;;3.37;2.20;;;39.60;49.90;;;;;;5031319;28;20453;-65
2022/08/04 10:34:11;;;;;;;4.17;2.20;;;39.70;50.50;;;;;;5031244;28;20459;-64
2022/08/04 10:36:47;;;;;;;2.40;2.10;;;39.80;48.60;;;;;;5031224;28;20465;-67
2022/08/04 10:39:20;;;;;;;2.60;2.00;;;39.90;47.40;;;;;;5031436;28;20480;-67
2022/08/04 10:41:55;;;;;;;2.87;2.57;;;39.10;47.10;;;;;;5031529;28;20802;-67
2022/08/04 10:44:31;;;;;;;2.97;2.07;;;39.20;47.50;;;;;;5031175;28;20448;-67
2022/08/04 10:47:03;;;;;;;6.10;2.33;;;39.10;47.60;;;;;;5030931;28;20468;-67
2022/08/04 10:49:35;;;;;;;2.40;2.20;;;39.50;47.30;;;;;;5030984;28;20445;-67
2022/08/04 10:52:07;;;;;;;2.60;2.07;;;39.60;47.50;;;;;;5031075;28;20445;-66
2022/08/04 10:54:44;;;;;;;2.37;1.90;;;39.80;48.10;;;;;;5030683;28;20871;-68
2022/08/04 10:57:19;;;;;;;2.60;1.83;;;40.00;48.20;;;;;;5030738;28;20472;-67
2022/08/04 10:59:53;;;;;;;2.40;2.00;;;40.10;45.10;;;;;;5030805;28;20472;-67
2022/08/04 11:02:30;;;;;;;2.50;2.20;;;39.90;45.80;;;;;;5030702;28;20460;-67
2022/08/04 11:05:06;;;;;;;2.43;1.90;;;40.10;44.50;;;;;;5030259;28;20926;-67
2022/08/04 11:07:35;;;;;;;2.20;1.80;;;40.30;45.00;;;;;;5030805;28;20832;-67
2022/08/04 11:10:02;;;;;;;2.70;1.87;;;40.20;41.60;;;;;;5030465;28;20445;-67
2022/08/04 11:12:33;;;;;;;3.10;1.87;;;39.70;41.80;;;;;;5030542;28;20455;-66
2022/08/04 11:15:06;;;;;;;2.67;1.63;;;39.20;43.70;;;;;;5030107;28;20995;-67
2022/08/04 11:17:37;;;;;;;3.27;2.23;;;39.20;43.50;;;;;;5030427;28;20452;-67
2022/08/04 11:20:15;;;;;;;2.50;2.10;;;38.90;42.60;;;;;;5030514;28;20496;-67
2022/08/04 11:22:47;;;;;;;3.10;1.90;;;38.60;42.20;;;;;;5030383;28;20455;-66
2022/08/04 11:25:21;;;;;;;3.87;2.27;;;38.70;42.30;;;;;;5029968;28;20465;-66
2022/08/04 11:27:55;;;;;;;2.97;1.73;;;38.70;43.00;;;;;;5030123;28;20464;-66
2022/08/04 11:30:26;;;;;;;4.87;1.90;;;38.90;43.30;;;;;;5030340;28;20432;-66
2022/08/04 11:33:01;;;;;;;2.67;2.13;;;39.40;42.70;;;;;;5030318;28;20470;-68
2022/08/04 11:35:34;;;;;;;3.37;2.10;;;39.70;42.30;;;;;;5029765;28;20564;-68
2022/08/04 11:38:11;;;;;;;2.50;2.03;;;40.00;43.30;;;;;;5029953;28;20447;-67
2022/08/04 11:40:42;;;;;;;4.27;2.30;;;40.60;41.50;;;;;;5029836;28;20991;-67
2022/08/04 11:43:22;;;;;;;3.37;2.10;;;40.30;44.60;;;;;;5030042;28;20551;-67
2022/08/04 11:45:54;;;;;;;2.40;2.17;;;39.70;43.90;;;;;;5029622;28;20627;-67
2022/08/04 11:48:29;;;;;;;3.40;2.23;;;39.40;42.90;;;;;;5029856;28;20445;-68
2022/08/04 11:51:01;;;;;;;2.40;2.20;;;38.30;44.20;;;;;;5029832;28;20487;-66
2022/08/04 11:53:29;;;;;;;3.57;2.87;;;37.90;44.40;;;;;;5030080;28;20476;-66
2022/08/04 11:56:02;;;;;;;3.03;2.17;;;38.20;44.30;;;;;;5029493;28;20848;-68
2022/08/04 11:58:31;;;;;;;2.63;2.33;;;38.50;44.90;;;;;;5029633;28;20459;-67
2022/08/04 12:01:08;;;;;;;4.00;2.30;;;38.80;44.30;;;;;;5029521;28;21015;-65
2022/08/04 12:03:47;;;;;;;5.67;2.00;;;39.20;44.70;;;;;;5029671;28;21102;-67
2022/08/04 12:06:20;;;;;;;5.53;2.00;;;40.00;42.80;;;;;;5029468;28;20598;-67
2022/08/04 12:09:00;;;;;;;2.60;1.90;;;40.70;43.00;;;;;;5029603;28;20717;-68
2022/08/04 12:11:54;;;;;;;2.50;2.23;;;41.30;40.60;;;;;;5029660;28;20507;-67
2022/08/04 12:14:29;;;;;;;2.37;1.97;;;41.40;40.30;;;;;;5009475;28;20457;-68
2022/08/04 12:17:00;;;;;;;4.03;2.30;;;41.50;40.90;;;;;;5029483;28;20471;-67
2022/08/04 12:19:34;;;;;;;2.70;2.17;;;41.40;40.40;;;;;;5029570;28;20460;-66
2022/08/04 12:22:05;;;;;;;2.93;2.17;;;41.00;40.60;;;;;;5029412;28;20825;-67
2022/08/04 12:24:37;;;;;;;6.57;2.53;;;40.80;41.40;;;;;;5031452;28;20453;-67
2022/08/04 12:27:16;;;;;;;3.00;2.03;;;41.50;40.30;;;;;;5033505;28;20472;-68
2022/08/04 12:29:46;;;;;;;2.60;2.40;;;41.60;39.60;;;;;;5033677;28;20456;-66
2022/08/04 12:32:25;;;;;;;4.10;1.90;;;41.40;40.30;;;;;;5033922;28;20448;-66
2022/08/04 12:35:03;;;;;;;2.40;2.10;;;42.00;39.50;;;;;;5033125;28;20451;-67
2022/08/04 12:37:41;;;;;;;2.70;2.30;;;42.30;38.70;;;;;;5033654;28;20445;-67
2022/08/04 12:40:15;;;;;;;2.80;2.40;;;42.10;38.70;;;;;;5033346;28;20506;-65
2022/08/04 12:42:47;;;;;;;3.17;2.33;;;42.20;38.60;;;;;;5033443;28;20459;-66
2022/08/04 12:45:17;;;;;;;2.47;2.20;;;42.20;39.00;;;;;;5032998;28;20468;-66
2022/08/04 12:47:46;;;;;;;3.07;1.90;;;42.60;40.40;;;;;;5033458;28;21013;-68
2022/08/04 12:50:15;;;;;;;3.33;2.10;;;43.50;39.60;;;;;;5033545;28;20441;-67
2022/08/04 12:52:44;;;;;;;2.90;2.10;;;44.60;36.70;;;;;;5033597;28;20455;-66
2022/08/04 12:55:12;;;;;;;2.87;2.57;;;44.30;35.80;;;;;;5032824;28;20942;-66
2022/08/04 12:57:40;;;;;;;4.90;2.20;;;43.80;36.00;;;;;;5033000;28;20450;-67
2022/08/04 13:00:08;;;;;;;4.00;2.40;;;43.40;36.40;;;;;;5033132;28;20542;-67
2022/08/04 13:02:42;;;;;;;2.43;1.87;;;42.50;37.00;;;;;;5033064;28;20462;-67
2022/08/04 13:05:13;;;;;;;4.30;1.90;;;41.70;37.60;;;;;;5032532;28;20449;-67
2022/08/04 13:07:43;;;;;;;3.97;2.30;;;41.50;38.90;;;;;;5032862;28;20460;-67
2022/08/04 13:10:13;;;;;;;2.50;2.30;;;41.60;37.60;;;;;;5032648;28;20449;-67
2022/08/04 13:12:44;;;;;;;2.50;2.10;;;41.80;37.70;;;;;;5032923;28;20492;-67
2022/08/04 13:15:15;;;;;;;2.57;2.30;;;41.90;37.40;;;;;;5032452;28;20445;-67
2022/08/04 13:17:51;;;;;;;3.47;2.40;;;42.10;36.90;;;;;;5032598;28;20445;-68
2022/08/04 13:20:25;;;;;;;4.53;2.20;;;42.30;36.90;;;;;;5032471;28;20529;-68
2022/08/04 13:22:57;;;;;;;4.40;2.27;;;42.90;36.70;;;;;;5032428;28;20452;-67
2022/08/04 13:25:29;;;;;;;2.90;2.40;;;43.20;35.80;;;;;;5032187;28;20479;-67
2022/08/04 13:27:57;;;;;;;2.90;2.20;;;43.40;35.80;;;;;;5032407;28;20883;-68
2022/08/04 13:30:25;;;;;;;3.20;2.60;;;43.60;36.40;;;;;;5032349;28;20455;-66
2022/08/04 13:32:57;;;;;;;3.47;2.10;;;44.10;35.40;;;;;;5032343;28;20449;-67